createdAt,value
2022-10-11T11:58:39.548Z,24320.00
2022-10-11T11:59:11.196Z,6864.00
2022-10-11T11:59:41.829Z,5736.00
2022-10-11T12:00:12.709Z,5140.00
2022-10-11T12:00:43.418Z,4760.00
2022-10-11T12:01:14.748Z,4616.00
2022-10-11T12:01:44.912Z,4580.00
2022-10-11T12:02:15.591Z,4580.00
2022-10-11T12:02:46.291Z,4584.00
2022-10-11T12:03:16.936Z,4564.00
2022-10-11T12:03:47.636Z,4568.00
2022-10-11T12:04:18.332Z,4596.00
2022-10-11T12:04:48.944Z,4668.00
2022-10-11T12:05:19.573Z,4780.00
2022-10-11T12:05:50.217Z,4960.00
2022-10-11T12:06:20.877Z,5156.00
2022-10-11T12:07:11.407Z,5476.00
2022-10-11T12:07:22.224Z,6292.00
2022-10-11T12:07:53.001Z,8256.00
2022-10-11T12:08:23.333Z,8032.00
2022-10-11T12:08:53.970Z,11368.00
2022-10-11T12:09:24.625Z,11856.00
2022-10-11T12:09:55.226Z,14252.00
2022-10-11T12:10:25.942Z,7384.00
2022-10-11T12:10:56.733Z,5688.00
2022-10-11T12:11:34.621Z,5184.00
2022-10-11T12:11:58.360Z,4972.00
2022-10-11T12:12:29.204Z,4804.00
2022-10-11T12:12:59.950Z,4704.00
2022-10-11T12:13:32.536Z,4372.00
2022-10-11T12:14:01.286Z,4116.00
2022-10-11T12:14:32.813Z,4004.00
2022-10-11T12:15:03.754Z,3928.00
2022-10-11T12:15:33.494Z,3884.00
2022-10-11T12:16:04.297Z,3876.00
2022-10-11T12:16:35.621Z,3872.00
2022-10-11T12:17:05.757Z,3764.00
2022-10-11T12:17:36.438Z,3616.00
2022-10-11T12:18:07.096Z,3484.00
2022-10-11T12:18:42.752Z,3172.00
2022-10-11T12:19:08.927Z,2976.00
2022-10-11T12:19:39.559Z,2876.00
2022-10-11T12:20:10.278Z,2796.00
2022-10-11T12:20:40.944Z,2744.00
2022-10-11T12:21:11.572Z,2680.00
2022-10-11T12:21:42.180Z,2612.00
2022-10-11T12:22:12.825Z,2564.00
2022-10-11T12:22:44.570Z,2540.00
2022-10-11T12:23:17.819Z,2536.00
2022-10-11T12:23:44.737Z,2512.00
2022-10-11T12:24:15.409Z,2508.00
2022-10-11T12:24:46.040Z,2512.00
2022-10-11T12:25:18.706Z,2520.00
2022-10-11T12:25:47.551Z,2512.00
2022-10-11T12:26:18.161Z,2468.00
2022-10-11T12:26:50.376Z,2424.00
2022-10-11T12:27:20.150Z,2392.00
2022-10-11T12:27:50.281Z,2436.00
2022-10-11T12:28:21.013Z,2524.00
2022-10-11T12:28:51.662Z,2612.00
2022-10-11T12:29:27.428Z,2712.00
2022-10-11T12:29:59.634Z,2808.00
2022-10-11T12:30:24.605Z,2928.00
2022-10-11T12:30:54.772Z,3136.00
2022-10-11T12:31:25.406Z,3352.00
2022-10-11T12:31:56.046Z,3584.00
2022-10-11T12:32:26.682Z,3676.00
2022-10-11T12:32:57.318Z,3720.00
2022-10-11T12:33:27.966Z,3804.00
2022-10-11T12:33:58.617Z,3852.00
2022-10-11T12:34:30.354Z,3904.00
2022-10-11T12:34:59.961Z,3896.00
2022-10-11T12:35:30.765Z,3840.00
2022-10-11T12:36:04.176Z,3772.00
2022-10-11T12:36:32.004Z,3640.00
2022-10-11T12:37:05.998Z,3600.00
2022-10-11T12:37:33.358Z,3616.00
2022-10-11T12:38:03.993Z,3660.00
2022-10-11T12:38:34.697Z,3700.00
2022-10-11T12:39:07.096Z,3752.00
2022-10-11T12:39:36.264Z,3832.00
2022-10-11T12:40:06.997Z,3892.00
2022-10-11T12:40:40.387Z,3960.00
2022-10-11T12:41:08.503Z,4012.00
2022-10-11T12:41:39.129Z,4080.00
2022-10-11T12:42:09.809Z,4196.00
2022-10-11T12:42:40.427Z,4284.00
2022-10-11T12:43:11.063Z,4360.00
2022-10-11T12:43:41.725Z,4456.00
2022-10-11T12:44:12.375Z,4608.00
2022-10-11T12:44:43.013Z,4864.00
2022-10-11T12:45:13.663Z,5092.00
2022-10-11T12:45:44.352Z,5336.00
2022-10-11T12:46:14.975Z,5400.00
2022-10-11T12:46:45.598Z,5272.00
2022-10-11T12:47:16.238Z,5220.00
2022-10-11T12:47:46.881Z,5144.00
2022-10-11T12:48:17.516Z,5048.00
2022-10-11T12:48:48.169Z,4912.00
2022-10-11T12:49:18.805Z,4796.00
2022-10-11T12:49:49.450Z,4724.00
2022-10-11T12:50:20.117Z,4636.00
2022-10-11T12:50:50.746Z,4540.00
2022-10-11T12:51:21.402Z,4476.00
2022-10-11T12:51:52.034Z,4436.00
2022-10-11T12:52:22.672Z,4416.00
2022-10-11T12:52:53.313Z,4444.00
2022-10-11T12:53:23.943Z,4476.00
2022-10-11T12:54:21.597Z,4508.00
2022-10-11T12:54:34.626Z,4604.00
2022-10-11T12:54:55.889Z,4764.00
2022-10-11T12:55:26.519Z,4924.00
2022-10-11T12:55:57.168Z,5024.00
2022-10-11T12:56:27.796Z,5136.00
2022-10-11T12:56:58.430Z,5140.00
2022-10-11T12:57:29.109Z,5144.00
2022-10-11T12:57:59.745Z,5100.00
2022-10-11T12:58:30.434Z,5084.00
2022-10-11T12:59:01.294Z,5160.00
2022-10-11T12:59:32.008Z,5268.00
2022-10-11T13:00:02.669Z,5392.00
2022-10-11T13:00:33.314Z,5536.00
2022-10-11T13:01:03.996Z,5672.00
2022-10-11T13:01:34.751Z,5804.00
2022-10-11T13:02:05.410Z,6044.00
2022-10-11T13:02:36.753Z,6344.00
2022-10-11T13:03:06.913Z,6672.00
2022-10-11T13:03:37.553Z,6920.00
2022-10-11T13:04:08.387Z,7224.00
2022-10-11T13:04:39.426Z,8148.00
2022-10-11T13:05:09.584Z,8204.00
2022-10-11T13:05:44.635Z,9384.00
2022-10-11T13:06:11.746Z,9500.00
2022-10-11T13:06:42.132Z,9184.00
2022-10-11T13:07:12.854Z,9540.00
2022-10-11T13:07:43.558Z,9144.00
2022-10-11T13:08:14.209Z,10232.00
2022-10-11T13:08:44.855Z,12380.00
2022-10-11T13:09:16.245Z,15136.00
2022-10-11T13:09:49.081Z,10940.00
2022-10-11T13:10:17.048Z,9876.00
2022-10-11T13:10:49.353Z,7560.00
2022-10-11T13:11:18.562Z,7764.00
2022-10-11T13:11:49.220Z,7100.00
2022-10-11T13:12:19.875Z,6560.00
2022-10-11T13:12:50.557Z,6508.00
2022-10-11T13:13:21.251Z,6568.00
2022-10-11T13:13:51.919Z,6084.00
2022-10-11T13:14:22.571Z,6148.00
2022-10-11T13:14:53.246Z,5936.00
2022-10-11T13:15:23.899Z,5832.00
2022-10-11T13:15:54.580Z,5792.00
2022-10-11T13:16:25.272Z,5804.00
2022-10-11T13:16:55.918Z,5896.00
2022-10-11T13:17:26.560Z,6092.00
2022-10-11T13:17:57.212Z,6276.00
2022-10-11T13:18:27.892Z,6404.00
2022-10-11T13:18:58.558Z,6504.00
2022-10-11T13:19:29.259Z,6564.00
2022-10-11T13:19:59.960Z,6544.00
2022-10-11T13:20:30.626Z,6796.00
2022-10-11T13:21:01.283Z,7120.00
2022-10-11T13:21:31.924Z,7572.00
2022-10-11T13:22:02.586Z,7912.00
2022-10-11T13:22:36.171Z,8124.00
2022-10-11T13:23:03.775Z,8424.00
2022-10-11T13:23:35.523Z,8828.00
2022-10-11T13:25:34.669Z,9144.00
2022-10-11T13:26:06.303Z,9168.00
2022-10-11T13:26:36.946Z,9368.00
2022-10-11T13:27:07.604Z,9384.00
2022-10-11T13:27:38.249Z,9520.00
2022-10-11T13:28:08.940Z,9484.00
2022-10-11T13:28:39.634Z,9524.00
2022-10-11T13:29:10.242Z,9920.00
2022-10-11T13:29:40.925Z,10080.00
2022-10-11T13:30:11.576Z,10252.00
2022-10-11T13:30:42.233Z,10472.00
2022-10-11T13:31:12.903Z,10896.00
2022-10-11T13:31:43.523Z,11640.00
2022-10-11T13:32:14.174Z,12428.00
2022-10-11T13:32:44.825Z,12648.00
2022-10-11T13:33:15.496Z,12912.00
2022-10-11T13:33:46.137Z,12056.00
2022-10-11T13:34:20.983Z,12432.00
2022-10-11T13:34:47.414Z,14784.00
2022-10-11T13:35:21.009Z,15360.00
2022-10-11T13:35:48.617Z,16096.00
2022-10-11T13:36:19.252Z,17216.00
2022-10-11T13:36:49.920Z,17312.00
2022-10-11T13:37:20.564Z,17536.00
2022-10-11T13:37:51.195Z,16736.00
2022-10-11T13:38:21.839Z,15840.00
2022-10-11T13:38:52.483Z,15840.00
2022-10-11T13:39:27.106Z,16096.00
2022-10-11T13:39:53.719Z,15552.00
2022-10-11T13:40:24.387Z,15360.00
2022-10-11T13:40:55.054Z,14912.00
2022-10-11T13:41:25.713Z,14880.00
2022-10-11T13:41:56.356Z,14592.00
2022-10-11T13:42:26.991Z,12692.00
2022-10-11T13:42:57.627Z,12864.00
2022-10-11T13:43:28.240Z,13536.00
2022-10-11T13:43:58.893Z,13952.00
2022-10-11T13:44:29.533Z,14240.00
2022-10-11T13:45:00.201Z,14624.00
2022-10-11T13:45:30.854Z,15072.00
2022-10-11T13:46:01.487Z,15168.00
2022-10-11T13:46:32.136Z,15776.00
2022-10-11T13:47:02.775Z,16224.00
2022-10-11T13:47:33.386Z,17408.00
2022-10-11T13:48:04.025Z,17984.00
2022-10-11T13:48:34.682Z,17952.00
2022-10-11T13:49:05.329Z,18464.00
2022-10-11T13:49:36.051Z,18016.00
2022-10-11T13:50:06.728Z,17792.00
2022-10-11T13:50:37.347Z,17664.00
2022-10-11T13:51:07.988Z,16832.00
2022-10-11T13:51:38.619Z,17472.00
2022-10-11T13:52:09.268Z,17248.00
2022-10-11T13:52:39.911Z,17792.00
2022-10-11T13:53:10.546Z,18368.00
2022-10-11T13:53:41.165Z,18368.00
2022-10-11T13:54:13.915Z,18016.00
2022-10-11T13:54:42.688Z,18720.00
2022-10-11T13:55:13.336Z,19328.00
2022-10-11T13:55:43.977Z,20032.00
2022-10-11T13:56:14.622Z,19424.00
2022-10-11T13:56:45.267Z,18912.00
2022-10-11T13:57:15.917Z,18464.00
2022-10-11T13:57:46.566Z,17856.00
2022-10-11T13:58:18.959Z,17184.00
2022-10-11T13:58:47.797Z,17312.00
2022-10-11T13:59:18.485Z,17728.00
2022-10-11T13:59:49.123Z,18112.00
2022-10-11T14:00:19.768Z,18080.00
2022-10-11T14:00:50.412Z,17536.00
2022-10-11T14:01:21.126Z,18304.00
2022-10-11T14:01:51.848Z,18208.00
2022-10-11T14:02:22.488Z,18176.00
2022-10-11T14:02:53.105Z,17888.00
2022-10-11T14:03:23.857Z,17568.00
2022-10-11T14:03:54.503Z,17088.00
2022-10-11T14:04:29.477Z,16256.00
2022-10-11T14:04:55.763Z,16032.00
2022-10-11T14:05:26.420Z,16704.00
2022-10-11T14:05:57.091Z,17088.00
2022-10-11T14:06:27.742Z,17984.00
2022-10-11T14:06:58.375Z,17440.00
2022-10-11T14:07:28.999Z,17216.00
2022-10-11T14:07:59.621Z,16832.00
2022-10-11T14:08:30.255Z,16448.00
2022-10-11T14:09:01.907Z,17056.00
2022-10-11T14:09:31.808Z,16288.00
2022-10-11T14:10:02.491Z,14304.00
2022-10-11T14:10:33.295Z,12096.00
2022-10-11T14:11:06.480Z,9572.00
2022-10-11T14:11:34.908Z,6344.00
2022-10-11T14:12:05.549Z,6052.00
2022-10-11T14:12:36.193Z,4904.00
2022-10-11T14:13:06.824Z,4508.00
2022-10-11T14:13:37.505Z,4196.00
2022-10-11T14:14:08.157Z,3984.00
2022-10-11T14:14:40.002Z,3864.00
2022-10-11T14:15:10.575Z,3792.00
2022-10-11T14:15:40.198Z,3752.00
2022-10-11T14:16:10.853Z,3776.00
2022-10-11T14:16:41.493Z,3908.00
2022-10-11T14:17:12.137Z,4216.00
2022-10-11T14:17:42.779Z,4648.00
2022-10-11T14:18:13.441Z,6000.00
2022-10-11T14:18:44.088Z,11076.00
2022-10-11T14:19:14.739Z,13216.00
2022-10-11T14:19:45.413Z,12588.00
2022-10-11T14:20:16.049Z,11800.00
2022-10-11T14:20:46.719Z,12168.00
2022-10-11T14:21:17.395Z,12288.00
2022-10-11T14:21:48.094Z,12608.00
2022-10-11T14:22:18.753Z,13216.00
2022-10-11T14:22:49.614Z,13920.00
2022-10-11T14:23:20.222Z,12536.00
2022-10-11T14:23:50.858Z,11208.00
2022-10-11T14:24:21.506Z,11536.00
2022-10-11T14:24:52.144Z,9792.00
2022-10-11T14:25:22.778Z,5600.00
2022-10-11T14:25:53.435Z,4472.00
2022-10-11T14:26:24.148Z,4052.00
2022-10-11T14:26:54.808Z,3832.00
2022-10-11T14:27:25.439Z,3720.00
2022-10-11T14:27:56.079Z,3624.00
2022-10-11T14:28:26.811Z,3560.00
2022-10-11T14:28:57.502Z,3568.00
2022-10-11T14:29:28.162Z,3584.00
2022-10-11T14:30:25.073Z,3568.00
2022-10-11T14:30:30.900Z,3512.00
2022-10-11T14:31:00.083Z,3556.00
2022-10-11T14:31:30.742Z,3628.00
2022-10-11T14:32:01.389Z,3652.00
2022-10-11T14:32:32.078Z,3684.00
2022-10-11T14:33:02.812Z,3716.00
2022-10-11T14:33:33.458Z,3768.00
2022-10-11T14:34:04.129Z,3836.00
2022-10-11T14:34:34.786Z,3996.00
2022-10-11T14:35:05.435Z,4172.00
2022-10-11T14:35:36.115Z,4668.00
2022-10-11T14:36:07.113Z,4716.00
2022-10-11T14:36:37.522Z,4220.00
2022-10-11T14:37:08.167Z,4156.00
2022-10-11T14:37:38.808Z,4068.00
2022-10-11T14:38:09.461Z,3980.00
2022-10-11T14:38:40.270Z,3964.00
2022-10-11T14:39:10.957Z,4268.00
2022-10-11T14:39:41.587Z,10436.00
2022-10-11T14:40:12.271Z,9520.00
2022-10-11T14:40:42.951Z,8940.00
2022-10-11T14:41:13.605Z,8472.00
2022-10-11T14:41:44.246Z,8256.00
2022-10-11T14:42:14.939Z,7972.00
2022-10-11T14:42:45.563Z,7548.00
2022-10-11T14:43:16.210Z,7664.00
2022-10-11T14:43:46.911Z,7652.00
2022-10-11T14:44:18.411Z,7360.00
2022-10-11T14:44:48.041Z,7076.00
2022-10-11T14:45:18.707Z,6864.00
2022-10-11T14:45:49.878Z,6812.00
2022-10-11T14:46:20.076Z,6744.00
2022-10-11T14:46:54.057Z,6932.00
2022-10-11T14:47:21.613Z,6832.00
2022-10-11T14:47:52.245Z,6544.00
2022-10-11T14:48:42.912Z,6272.00
2022-10-11T14:48:58.625Z,5456.00
2022-10-11T14:49:24.257Z,5440.00
2022-10-11T14:49:54.911Z,5432.00
2022-10-11T14:50:25.557Z,5632.00
2022-10-11T14:50:56.212Z,5712.00
2022-10-11T14:51:26.866Z,6172.00
2022-10-11T14:51:58.267Z,6376.00
2022-10-11T14:52:32.366Z,6260.00
2022-10-11T14:52:59.012Z,5500.00
2022-10-11T14:53:29.695Z,5064.00
2022-10-11T14:54:00.357Z,6592.00
2022-10-11T14:54:30.993Z,6480.00
2022-10-11T14:55:01.670Z,5012.00
2022-10-11T14:55:32.308Z,4804.00
2022-10-11T14:56:03.216Z,2532.00
2022-10-11T14:56:33.611Z,2104.00
2022-10-11T14:57:04.274Z,1972.00
2022-10-11T14:57:34.944Z,1896.00
2022-10-11T14:58:05.580Z,1848.00
2022-10-11T14:58:36.379Z,1828.00
2022-10-11T14:59:06.995Z,1800.00
2022-10-11T14:59:37.638Z,1724.00
2022-10-11T15:00:08.287Z,1656.00
2022-10-11T15:00:38.941Z,1620.00
2022-10-11T15:01:09.610Z,1596.00
2022-10-11T15:01:40.382Z,1544.00
2022-10-11T15:02:10.991Z,1468.00
2022-10-11T15:02:41.833Z,1352.00
2022-10-11T15:03:12.442Z,1280.00
2022-10-11T15:03:43.087Z,1232.00
2022-10-11T15:04:13.742Z,1204.00
2022-10-11T15:04:44.404Z,1180.00
2022-10-11T15:05:15.030Z,1152.00
2022-10-11T15:05:45.826Z,1116.00
2022-10-11T15:06:16.466Z,1088.00
2022-10-11T15:06:47.879Z,1056.00
2022-10-11T15:07:18.020Z,1024.00
2022-10-11T15:07:48.674Z,1000.00
2022-10-11T15:08:19.289Z,976.00
2022-10-11T15:08:49.934Z,976.00
2022-10-11T15:09:20.572Z,988.00
2022-10-11T15:09:51.229Z,984.00
2022-10-11T15:10:21.869Z,936.00
2022-10-11T15:10:52.571Z,916.00
2022-10-11T15:11:23.219Z,896.00
2022-10-11T15:11:53.884Z,860.00
2022-10-11T15:12:24.619Z,820.00
2022-10-11T15:12:55.259Z,788.00
2022-10-11T15:13:25.916Z,776.00
2022-10-11T15:13:56.578Z,764.00
2022-10-11T15:14:35.745Z,748.00
2022-10-11T15:14:57.954Z,740.00
2022-10-11T15:15:28.858Z,736.00
2022-10-11T15:15:59.638Z,732.00
2022-10-11T15:16:31.083Z,720.00
2022-10-11T15:17:01.424Z,696.00
2022-10-11T15:17:31.586Z,688.00
2022-10-11T15:18:02.273Z,684.00
2022-10-11T15:18:32.884Z,676.00
2022-10-11T15:19:03.518Z,684.00
2022-10-11T15:19:34.178Z,684.00
2022-10-11T15:20:04.816Z,704.00
2022-10-11T15:20:35.463Z,724.00
2022-10-11T15:21:06.130Z,748.00
2022-10-11T15:21:36.781Z,776.00
2022-10-11T15:22:07.801Z,804.00
2022-10-11T15:22:38.044Z,832.00
2022-10-11T15:23:08.682Z,852.00
2022-10-11T15:23:39.320Z,868.00
2022-10-11T15:24:10.881Z,892.00
2022-10-11T15:24:40.528Z,928.00
2022-10-11T15:25:11.183Z,960.00
2022-10-11T15:25:41.823Z,984.00
2022-10-11T15:26:12.449Z,996.00
2022-10-11T15:26:43.091Z,1008.00
2022-10-11T15:27:13.738Z,1032.00
2022-10-11T15:27:44.381Z,1064.00
2022-10-11T15:28:15.023Z,1076.00
2022-10-11T15:28:46.213Z,1092.00
2022-10-11T15:29:16.818Z,1088.00
2022-10-11T15:29:46.914Z,1080.00
2022-10-11T15:30:17.546Z,1072.00
2022-10-11T15:30:48.210Z,1044.00
2022-10-11T15:31:18.891Z,1004.00
2022-10-11T15:31:49.567Z,956.00
2022-10-11T15:32:20.193Z,900.00
2022-10-11T15:32:50.852Z,844.00
2022-10-11T15:33:21.488Z,796.00
2022-10-11T15:33:52.121Z,776.00
2022-10-11T15:34:22.866Z,768.00
2022-10-11T15:34:53.542Z,772.00
2022-10-11T15:35:24.183Z,780.00
2022-10-11T15:35:54.824Z,780.00
2022-10-11T15:36:25.462Z,780.00
2022-10-11T15:36:56.109Z,784.00
2022-10-11T15:37:26.787Z,792.00
2022-10-11T15:37:57.488Z,804.00
2022-10-11T15:38:28.140Z,816.00
2022-10-11T15:38:58.736Z,828.00
2022-10-11T15:39:29.396Z,828.00
2022-10-11T15:40:00.189Z,824.00
2022-10-11T15:40:30.939Z,812.00
2022-10-11T15:41:01.684Z,800.00
2022-10-11T15:41:33.036Z,792.00
2022-10-11T15:42:03.555Z,788.00
2022-10-11T15:42:35.174Z,788.00
2022-10-11T15:43:04.884Z,792.00
2022-10-11T15:43:35.729Z,788.00
2022-10-11T15:44:06.381Z,780.00
2022-10-11T15:44:37.027Z,776.00
2022-10-11T15:45:07.722Z,772.00
2022-10-11T15:45:38.399Z,772.00
2022-10-11T15:46:09.508Z,768.00
2022-10-11T15:46:39.883Z,768.00
2022-10-11T15:47:10.539Z,772.00
2022-10-11T15:47:41.200Z,772.00
2022-10-11T15:48:11.848Z,772.00
2022-10-11T15:48:42.481Z,772.00
2022-10-11T15:49:13.106Z,756.00
2022-10-11T15:49:43.742Z,744.00
2022-10-11T15:50:14.373Z,732.00
2022-10-11T15:50:45.041Z,712.00
2022-10-11T15:51:15.695Z,692.00
2022-10-11T15:51:46.317Z,676.00
2022-10-11T15:52:16.961Z,656.00
2022-10-11T15:52:47.614Z,636.00
2022-10-11T15:53:18.268Z,608.00
2022-10-11T15:53:48.919Z,584.00
2022-10-11T15:54:19.550Z,556.00
2022-10-11T15:54:50.193Z,524.00
2022-10-11T15:55:20.841Z,496.00
2022-10-11T15:55:51.447Z,468.00
2022-10-11T15:56:22.098Z,432.00
2022-10-11T15:56:52.760Z,404.00
2022-10-11T15:57:23.400Z,380.00
2022-10-11T15:57:54.052Z,356.00
2022-10-11T15:58:24.745Z,340.00
2022-10-11T15:58:55.394Z,328.00
2022-10-11T15:59:26.026Z,312.00
2022-10-11T15:59:56.677Z,304.00
2022-10-11T16:00:27.340Z,292.00
2022-10-11T16:00:57.994Z,284.00
2022-10-11T16:01:28.713Z,276.00
2022-10-11T16:01:59.396Z,272.00
2022-10-11T16:02:30.046Z,264.00
2022-10-11T16:03:00.699Z,260.00
2022-10-11T16:03:31.348Z,252.00
2022-10-11T16:04:02.000Z,252.00
2022-10-11T16:04:32.668Z,248.00
2022-10-11T16:05:03.308Z,244.00
2022-10-11T16:05:33.970Z,240.00
2022-10-11T16:06:05.706Z,240.00
2022-10-11T16:06:35.564Z,240.00
2022-10-11T16:07:06.230Z,240.00
2022-10-11T16:07:36.917Z,236.00
2022-10-11T16:08:07.564Z,232.00
2022-10-11T16:08:38.203Z,224.00
2022-10-11T16:09:08.863Z,216.00
2022-10-11T16:09:39.567Z,208.00
2022-10-11T16:10:10.213Z,200.00
2022-10-11T16:10:40.866Z,188.00
2022-10-11T16:11:11.509Z,180.00
2022-10-11T16:11:42.180Z,168.00
2022-10-11T16:12:12.823Z,160.00
2022-10-11T16:12:43.487Z,152.00
2022-10-11T16:13:14.184Z,144.00
2022-10-11T16:13:44.837Z,136.00
2022-10-11T16:14:15.489Z,132.00
2022-10-11T16:14:47.288Z,128.00
2022-10-11T16:15:17.076Z,124.00
2022-10-11T16:15:47.734Z,120.00
2022-10-11T16:16:18.381Z,112.00
2022-10-11T16:16:49.025Z,104.00
2022-10-11T16:17:19.663Z,100.00
2022-10-11T16:17:50.322Z,96.00
2022-10-11T16:18:21.002Z,88.00
2022-10-11T16:18:51.646Z,88.00
2022-10-11T16:19:22.279Z,84.00
2022-10-11T16:19:52.938Z,80.00
2022-10-11T16:20:23.588Z,76.00
2022-10-11T16:20:54.284Z,68.00
2022-10-11T16:21:24.892Z,68.00
2022-10-11T16:21:55.540Z,64.00
2022-10-11T16:22:26.190Z,60.00
2022-10-11T16:22:56.869Z,56.00
2022-10-11T16:23:27.531Z,56.00
2022-10-11T16:23:58.172Z,52.00
2022-10-11T16:24:28.852Z,52.00
2022-10-11T16:24:59.512Z,48.00
2022-10-11T16:25:30.169Z,44.00
2022-10-11T16:26:00.833Z,44.00
2022-10-11T16:26:31.503Z,40.00
2022-10-11T16:27:02.145Z,40.00
2022-10-11T16:27:32.803Z,36.00
2022-10-11T16:28:03.483Z,36.00
2022-10-11T16:28:34.424Z,32.00
2022-10-11T16:29:05.054Z,32.00
2022-10-11T16:29:35.895Z,32.00
2022-10-11T16:30:06.548Z,28.00
2022-10-11T16:30:37.171Z,24.00
2022-10-11T16:31:07.795Z,28.00
2022-10-11T16:31:38.459Z,24.00
2022-10-11T16:32:09.268Z,24.00
2022-10-11T16:32:40.224Z,24.00
2022-10-11T16:33:10.825Z,16.00
2022-10-11T16:33:42.485Z,20.00
2022-10-11T16:34:12.269Z,16.00
2022-10-11T16:34:43.404Z,16.00
2022-10-11T16:35:13.572Z,16.00
2022-10-11T16:35:44.227Z,12.00
2022-10-11T16:36:21.901Z,12.00
2022-10-11T16:36:50.905Z,12.00
2022-10-11T16:37:16.056Z,8.00
2022-10-11T16:37:46.689Z,12.00
2022-10-11T16:38:17.323Z,8.00
2022-10-11T16:38:47.984Z,8.00
2022-10-11T16:39:19.488Z,8.00
2022-10-11T16:39:50.363Z,8.00
2022-10-11T16:40:26.796Z,8.00
2022-10-11T16:40:50.931Z,8.00
2022-10-11T16:41:21.579Z,8.00
2022-10-11T16:41:52.207Z,4.00
2022-10-11T16:42:22.844Z,8.00
2022-10-11T16:42:53.474Z,8.00
2022-10-11T16:43:24.907Z,4.00
2022-10-11T16:43:55.093Z,4.00
2022-10-11T16:44:25.900Z,4.00
2022-10-11T16:44:56.521Z,4.00
2022-10-11T16:45:27.158Z,4.00
2022-10-11T16:45:57.799Z,4.00
2022-10-11T16:46:28.435Z,4.00
2022-10-11T16:46:59.250Z,4.00
2022-10-11T16:47:29.841Z,4.00
2022-10-11T16:48:00.474Z,4.00
2022-10-11T16:48:31.114Z,0.00
2022-10-11T16:49:01.766Z,0.00
2022-10-11T16:49:32.564Z,0.00
2022-10-11T16:50:03.271Z,4.00
2022-10-11T16:50:39.066Z,4.00
2022-10-11T16:51:05.305Z,4.00
2022-10-11T16:51:35.444Z,4.00
2022-10-11T16:52:06.077Z,0.00
2022-10-11T16:52:36.707Z,0.00
2022-10-11T16:53:07.337Z,0.00
2022-10-11T16:53:39.641Z,0.00
2022-10-11T16:54:08.743Z,0.00
2022-10-11T16:54:39.352Z,0.00
2022-10-11T16:55:10.009Z,0.00
2022-10-11T16:55:40.846Z,0.00
2022-10-11T16:56:11.467Z,0.00
2022-10-11T16:56:42.085Z,0.00
2022-10-11T16:57:12.754Z,0.00
2022-10-11T16:57:45.500Z,0.00
2022-10-11T16:58:15.407Z,0.00
2022-10-11T16:58:45.954Z,0.00
2022-10-11T16:59:15.567Z,0.00
2022-10-11T16:59:46.329Z,0.00
2022-10-11T17:00:16.990Z,0.00
2022-10-11T17:00:48.386Z,0.00
2022-10-11T17:01:18.539Z,0.00
2022-10-11T17:01:49.337Z,0.00
2022-10-11T17:02:19.957Z,0.00
2022-10-11T17:02:50.599Z,0.00
2022-10-11T17:03:21.238Z,0.00
2022-10-11T17:03:51.897Z,0.00
2022-10-11T17:04:25.212Z,0.00
2022-10-11T17:04:53.357Z,0.00
2022-10-11T17:05:23.994Z,0.00
2022-10-11T17:05:54.623Z,0.00
2022-10-11T17:06:25.262Z,0.00
2022-10-11T17:06:55.897Z,0.00
2022-10-11T17:07:26.698Z,0.00
2022-10-11T17:07:57.340Z,0.00
2022-10-11T17:08:27.995Z,0.00
2022-10-11T17:08:58.632Z,0.00
2022-10-11T17:09:29.399Z,0.00
2022-10-11T17:10:00.087Z,0.00
2022-10-11T17:10:30.742Z,0.00
2022-10-11T17:11:01.938Z,0.00
2022-10-11T17:11:32.292Z,0.00
2022-10-11T17:12:02.937Z,0.00
2022-10-11T17:12:33.580Z,0.00
2022-10-11T17:13:04.246Z,0.00
2022-10-11T17:13:34.901Z,0.00
2022-10-11T17:14:05.553Z,0.00
2022-10-11T17:14:36.181Z,0.00
2022-10-11T17:15:06.826Z,0.00
2022-10-11T17:15:37.457Z,0.00
2022-10-11T17:16:08.724Z,0.00
2022-10-11T17:16:38.715Z,0.00
2022-10-11T17:17:09.366Z,0.00
2022-10-11T17:17:40.018Z,0.00
2022-10-11T17:18:10.650Z,0.00
2022-10-11T17:18:41.281Z,0.00
2022-10-11T17:19:11.912Z,0.00
2022-10-11T17:19:45.132Z,0.00
2022-10-11T17:20:13.189Z,0.00
2022-10-11T17:20:43.850Z,0.00
2022-10-11T17:21:14.472Z,0.00
2022-10-11T17:21:45.923Z,0.00
2022-10-11T17:22:16.067Z,0.00
2022-10-11T17:22:46.677Z,0.00
2022-10-11T17:23:17.412Z,0.00
2022-10-11T17:23:48.065Z,0.00
2022-10-11T17:24:18.707Z,0.00
2022-10-11T17:24:49.348Z,0.00
2022-10-11T17:25:19.975Z,0.00
2022-10-11T17:25:50.716Z,0.00
2022-10-11T17:26:21.457Z,0.00
2022-10-11T17:26:52.929Z,0.00
2022-10-11T17:27:23.072Z,0.00
2022-10-11T17:27:53.790Z,0.00
2022-10-11T17:28:24.466Z,0.00
2022-10-11T17:28:55.149Z,0.00
2022-10-11T17:29:25.773Z,0.00
2022-10-11T17:29:56.429Z,0.00
2022-10-11T17:30:27.069Z,0.00
2022-10-11T17:30:57.704Z,0.00
2022-10-11T17:31:28.354Z,0.00
2022-10-11T17:31:59.030Z,0.00
2022-10-11T17:32:29.740Z,0.00
2022-10-11T17:33:00.408Z,0.00
2022-10-11T17:33:31.092Z,0.00
2022-10-11T17:34:01.773Z,0.00
2022-10-11T17:34:32.414Z,0.00
2022-10-11T17:35:03.065Z,0.00
2022-10-11T17:35:33.698Z,0.00
2022-10-11T17:36:04.700Z,0.00
2022-10-11T17:36:35.049Z,0.00
2022-10-11T17:37:05.709Z,0.00
2022-10-11T17:37:36.386Z,0.00
2022-10-11T17:38:07.032Z,0.00
2022-10-11T17:38:37.685Z,0.00
2022-10-11T17:39:08.345Z,0.00
2022-10-11T17:39:38.996Z,0.00
2022-10-11T17:40:09.633Z,0.00
2022-10-11T17:40:40.262Z,0.00
2022-10-11T17:41:10.908Z,0.00
2022-10-11T17:41:41.523Z,0.00
2022-10-11T17:42:12.397Z,0.00
2022-10-11T17:42:43.029Z,0.00
2022-10-11T17:43:13.662Z,0.00
2022-10-11T17:43:44.292Z,0.00
2022-10-11T17:44:14.931Z,0.00
2022-10-11T17:44:45.579Z,0.00
2022-10-11T17:45:16.216Z,0.00
2022-10-11T17:45:46.918Z,0.00
2022-10-11T17:46:17.556Z,0.00
2022-10-11T17:46:48.217Z,0.00
2022-10-11T17:47:18.870Z,0.00
2022-10-11T17:47:49.579Z,0.00
2022-10-11T17:48:20.262Z,0.00
2022-10-11T17:48:50.859Z,0.00
2022-10-11T17:49:21.508Z,0.00
2022-10-11T17:49:52.198Z,0.00
2022-10-11T17:50:22.782Z,0.00
2022-10-11T17:50:53.417Z,0.00
2022-10-11T17:51:24.118Z,0.00
2022-10-11T17:51:54.760Z,0.00
2022-10-11T17:52:25.410Z,0.00
2022-10-11T17:52:56.053Z,0.00
2022-10-11T17:53:26.726Z,0.00
2022-10-11T17:53:57.371Z,0.00
2022-10-11T17:54:28.015Z,0.00
2022-10-11T17:54:58.642Z,0.00
2022-10-11T17:55:29.310Z,0.00
2022-10-11T17:55:59.960Z,0.00
2022-10-11T17:56:36.551Z,0.00
2022-10-11T17:57:01.413Z,0.00
2022-10-11T17:57:32.122Z,0.00
2022-10-11T17:58:02.769Z,0.00
2022-10-11T17:58:33.454Z,0.00
2022-10-11T17:59:04.127Z,0.00
2022-10-11T17:59:34.774Z,0.00
2022-10-11T18:00:05.415Z,0.00
2022-10-11T18:00:36.154Z,0.00
2022-10-11T18:01:07.129Z,0.00
2022-10-11T18:01:37.499Z,0.00
2022-10-11T18:02:08.188Z,0.00
2022-10-11T18:02:42.122Z,0.00
2022-10-11T18:03:11.547Z,0.00
2022-10-11T18:03:41.836Z,0.00
2022-10-11T18:04:11.462Z,0.00
2022-10-11T18:04:42.130Z,0.00
2022-10-11T18:05:13.555Z,0.00
2022-10-11T18:05:43.822Z,0.00
2022-10-11T18:06:14.678Z,0.00
2022-10-11T18:06:45.330Z,0.00
2022-10-11T18:07:16.052Z,0.00
2022-10-11T18:07:49.059Z,0.00
2022-10-11T18:08:17.786Z,0.00
2022-10-11T18:08:50.346Z,0.00
2022-10-11T18:09:19.938Z,0.00
2022-10-11T18:09:50.900Z,0.00
2022-10-11T18:10:20.887Z,0.00
2022-10-11T18:10:51.121Z,0.00
2022-10-11T18:11:21.776Z,0.00
2022-10-11T18:11:52.414Z,0.00
2022-10-11T18:12:23.051Z,0.00
2022-10-11T18:12:53.853Z,0.00
2022-10-11T18:13:24.518Z,0.00
2022-10-11T18:13:55.835Z,0.00
2022-10-11T18:14:27.723Z,0.00
2022-10-11T18:14:56.902Z,0.00
2022-10-11T18:15:27.558Z,0.00
2022-10-11T18:15:58.201Z,0.00
2022-10-11T18:16:29.498Z,0.00
2022-10-11T18:16:59.640Z,0.00
2022-10-11T18:17:30.270Z,0.00
2022-10-11T18:18:00.934Z,0.00
2022-10-11T18:18:31.571Z,0.00
2022-10-11T18:19:02.208Z,0.00
2022-10-11T18:19:33.828Z,0.00
2022-10-11T18:20:03.517Z,0.00
2022-10-11T18:20:34.173Z,0.00
2022-10-11T18:21:04.824Z,0.00
2022-10-11T18:21:35.467Z,0.00
2022-10-11T18:22:07.332Z,0.00